createdAt,value
2023-12-20T00:00:24.722Z,98705.06
2023-12-20T00:03:41.386Z,98701.42
2023-12-20T00:06:32.233Z,98701.27
2023-12-20T00:09:20.475Z,98699.86
2023-12-20T00:12:08.874Z,98707.61
2023-12-20T00:14:56.501Z,98715.30
2023-12-20T00:17:44.726Z,98712.95
2023-12-20T00:20:32.805Z,98721.98
2023-12-20T00:23:21.103Z,98728.50
2023-12-20T00:26:08.889Z,98739.08
2023-12-20T00:28:56.800Z,98745.30
2023-12-20T00:31:44.667Z,98740.09
2023-12-20T00:34:32.630Z,98738.15
2023-12-20T00:37:20.895Z,98737.85
2023-12-20T00:40:09.638Z,98734.70
2023-12-20T00:42:57.489Z,98725.64
2023-12-20T00:45:45.526Z,98723.62
2023-12-20T00:48:33.250Z,98729.75
2023-12-20T00:51:21.408Z,98732.05
2023-12-20T00:54:08.934Z,98739.71
2023-12-20T00:56:56.935Z,98742.34
2023-12-20T00:59:44.611Z,98726.98
2023-12-20T01:02:32.154Z,98722.48
2023-12-20T01:05:20.706Z,98731.51
2023-12-20T01:08:08.444Z,98738.98
2023-12-20T01:10:57.330Z,98731.95
2023-12-20T01:13:45.176Z,98726.35
2023-12-20T01:16:33.626Z,98736.68
2023-12-20T01:19:21.557Z,98733.62
2023-12-20T01:22:09.535Z,98729.20
2023-12-20T01:24:56.951Z,98723.55
2023-12-20T01:27:44.662Z,98721.84
2023-12-20T01:30:33.939Z,98720.17
2023-12-20T01:33:21.690Z,98719.80
2023-12-20T01:36:10.053Z,98727.12
2023-12-20T01:38:57.731Z,98725.94
2023-12-20T01:41:47.089Z,98723.71
2023-12-20T01:44:34.781Z,98726.70
2023-12-20T01:47:23.471Z,98727.16
2023-12-20T01:50:11.436Z,98717.17
2023-12-20T01:53:02.753Z,98715.08
2023-12-20T01:55:51.948Z,98716.88
2023-12-20T01:58:45.272Z,98713.73
2023-12-20T02:01:33.678Z,98719.17
2023-12-20T02:04:21.491Z,98718.46
2023-12-20T02:07:10.401Z,98711.97
2023-12-20T02:09:58.359Z,98713.02
2023-12-20T02:12:46.367Z,98714.95
2023-12-20T02:15:34.295Z,98705.75
2023-12-20T02:18:22.656Z,98703.27
2023-12-20T02:21:10.993Z,98701.30
2023-12-20T02:23:58.637Z,98707.44
2023-12-20T02:26:47.398Z,98703.97
2023-12-20T02:29:36.516Z,98718.09
2023-12-20T02:32:28.805Z,98719.05
2023-12-20T02:35:16.694Z,98714.08
2023-12-20T02:38:04.419Z,98716.18
2023-12-20T02:40:52.148Z,98706.55
2023-12-20T02:43:40.037Z,98701.09
2023-12-20T02:46:27.995Z,98696.66
2023-12-20T02:49:15.891Z,98690.83
2023-12-20T02:52:04.277Z,98689.73
2023-12-20T02:54:52.523Z,98687.23
2023-12-20T02:57:43.577Z,98685.38
2023-12-20T03:00:31.432Z,98686.05
2023-12-20T03:03:19.452Z,98680.45
2023-12-20T03:06:07.330Z,98672.77
2023-12-20T03:08:55.215Z,98676.70
2023-12-20T03:11:42.905Z,98675.27
2023-12-20T03:14:30.902Z,98668.25
2023-12-20T03:17:20.008Z,98662.45
2023-12-20T03:20:09.099Z,98665.56
2023-12-20T03:22:57.090Z,98669.99
2023-12-20T03:25:44.466Z,98665.15
2023-12-20T03:28:32.173Z,98662.92
2023-12-20T03:31:21.058Z,98661.89
2023-12-20T03:34:08.798Z,98668.60
2023-12-20T03:36:56.580Z,98661.37
2023-12-20T03:39:44.607Z,98667.37
2023-12-20T03:42:32.668Z,98670.67
2023-12-20T03:45:20.299Z,98672.08
2023-12-20T03:48:08.530Z,98662.85
2023-12-20T03:50:56.639Z,98665.27
2023-12-20T03:53:44.395Z,98667.42
2023-12-20T03:56:32.155Z,98665.31
2023-12-20T03:59:20.214Z,98659.82
2023-12-20T04:02:08.068Z,98665.34
2023-12-20T04:04:56.008Z,98660.51
2023-12-20T04:07:43.631Z,98658.14
2023-12-20T04:10:31.406Z,98658.50
2023-12-20T04:13:19.677Z,98654.72
2023-12-20T04:16:07.653Z,98659.08
2023-12-20T04:18:55.532Z,98664.23
2023-12-20T04:21:43.184Z,98666.80
2023-12-20T04:24:30.698Z,98668.63
2023-12-20T04:27:18.251Z,98670.70
2023-12-20T04:30:06.843Z,98671.77
2023-12-20T04:32:54.896Z,98676.13
2023-12-20T04:35:43.980Z,98679.92
2023-12-20T04:38:31.928Z,98680.39
2023-12-20T04:41:20.265Z,98679.66
2023-12-20T04:44:08.514Z,98684.64
2023-12-20T04:46:57.761Z,98676.95
2023-12-20T04:49:45.453Z,98675.50
2023-12-20T04:52:33.411Z,98675.77
2023-12-20T04:55:21.709Z,98680.52
2023-12-20T04:58:09.573Z,98673.52
2023-12-20T05:00:57.734Z,98666.81
2023-12-20T05:03:45.477Z,98673.73
2023-12-20T05:06:33.246Z,98673.85
2023-12-20T05:09:21.467Z,98670.26
2023-12-20T05:12:09.428Z,98670.84
2023-12-20T05:14:57.758Z,98672.58
2023-12-20T05:17:46.047Z,98676.61
2023-12-20T05:20:33.741Z,98677.24
2023-12-20T05:23:21.749Z,98683.48
2023-12-20T05:26:09.423Z,98682.79
2023-12-20T05:28:57.152Z,98683.63
2023-12-20T05:31:44.834Z,98676.64
2023-12-20T05:34:33.130Z,98670.50
2023-12-20T05:37:21.095Z,98661.33
2023-12-20T05:40:12.801Z,98658.62
2023-12-20T05:43:00.762Z,98659.27
2023-12-20T05:45:48.648Z,98658.70
2023-12-20T05:48:36.783Z,98652.84
2023-12-20T05:51:24.791Z,98650.50
2023-12-20T05:54:12.557Z,98655.86
2023-12-20T05:57:01.915Z,98657.41
2023-12-20T05:59:49.607Z,98654.66
2023-12-20T06:02:40.279Z,98658.48
2023-12-20T06:05:28.236Z,98659.67
2023-12-20T06:08:16.117Z,98661.25
2023-12-20T06:11:03.985Z,98653.77
2023-12-20T06:13:54.308Z,98652.73
2023-12-20T06:16:42.143Z,98646.16
2023-12-20T06:19:29.918Z,98643.95
2023-12-20T06:22:17.773Z,98640.89
2023-12-20T06:25:06.664Z,98634.73
2023-12-20T06:27:54.699Z,98635.20
2023-12-20T06:30:42.552Z,98631.04
2023-12-20T06:33:32.228Z,98620.67
2023-12-20T06:36:19.800Z,98618.94
2023-12-20T06:39:07.849Z,98613.27
2023-12-20T06:41:55.801Z,98614.92
2023-12-20T06:44:43.401Z,98610.34
2023-12-20T06:47:31.245Z,98610.36
2023-12-20T06:50:18.793Z,98612.68
2023-12-20T06:53:08.374Z,98617.23
2023-12-20T06:55:57.589Z,98615.34
2023-12-20T06:58:45.852Z,98617.53
2023-12-20T07:01:33.546Z,98620.30
2023-12-20T07:04:23.407Z,98618.76
2023-12-20T07:07:11.652Z,98618.23
2023-12-20T07:09:59.723Z,98617.89
2023-12-20T07:12:47.782Z,98622.39
2023-12-20T07:15:37.032Z,98618.81
2023-12-20T07:18:25.333Z,98617.80
2023-12-20T07:21:13.353Z,98615.98
2023-12-20T07:24:01.116Z,98612.35
2023-12-20T07:26:48.988Z,98605.05
2023-12-20T07:29:37.115Z,98602.11
2023-12-20T07:32:25.097Z,98602.80
2023-12-20T07:35:13.210Z,98600.45
2023-12-20T07:38:01.325Z,98595.45
2023-12-20T07:40:49.212Z,98591.96
2023-12-20T07:43:36.838Z,98588.61
2023-12-20T07:46:24.933Z,98587.66
2023-12-20T07:49:15.607Z,98585.82
2023-12-20T07:52:03.732Z,98588.61
2023-12-20T07:54:51.663Z,98591.78
2023-12-20T07:57:39.405Z,98588.44
2023-12-20T08:00:28.102Z,98586.83
2023-12-20T08:03:15.854Z,98581.65
2023-12-20T08:06:04.633Z,98576.26
2023-12-20T08:08:58.702Z,98573.16
2023-12-20T08:11:50.678Z,98568.08
2023-12-20T08:14:41.429Z,98560.30
2023-12-20T08:17:32.304Z,98552.79
2023-12-20T08:20:23.436Z,98551.77
2023-12-20T08:23:18.136Z,98552.15
2023-12-20T08:26:07.853Z,98550.86
2023-12-20T08:28:56.785Z,98546.08
2023-12-20T08:31:46.166Z,98544.06
2023-12-20T08:34:34.058Z,98536.17
2023-12-20T08:37:21.988Z,98537.92
2023-12-20T08:40:10.341Z,98526.36
2023-12-20T08:42:58.056Z,98524.61
2023-12-20T08:45:46.112Z,98516.55
2023-12-20T08:48:34.125Z,98511.23
2023-12-20T08:51:23.981Z,98506.98
2023-12-20T08:54:14.215Z,98500.13
2023-12-20T08:57:01.940Z,98496.02
2023-12-20T08:59:49.905Z,98495.85
2023-12-20T09:02:38.968Z,98490.31
2023-12-20T09:05:27.730Z,98491.83
2023-12-20T09:08:15.408Z,98489.20
2023-12-20T09:11:03.157Z,98493.58
2023-12-20T09:13:52.370Z,98492.92
2023-12-20T09:16:40.209Z,98487.51
2023-12-20T09:19:27.922Z,98481.11
2023-12-20T09:22:16.107Z,98479.30
2023-12-20T09:25:04.328Z,98477.95
2023-12-20T09:27:53.782Z,98466.19
2023-12-20T09:30:41.941Z,98466.75
2023-12-20T09:33:29.946Z,98462.37
2023-12-20T09:36:37.318Z,98455.48
2023-12-20T09:39:25.346Z,98453.30
2023-12-20T09:42:18.468Z,98439.66
2023-12-20T09:45:10.932Z,98430.42
2023-12-20T09:47:59.945Z,98431.81
2023-12-20T09:50:51.835Z,98429.27
2023-12-20T09:53:43.310Z,98424.16
2023-12-20T09:56:32.113Z,98411.14
2023-12-20T09:59:20.094Z,98408.59
2023-12-20T10:02:15.591Z,98406.13
2023-12-20T10:05:05.387Z,98400.85
2023-12-20T10:07:53.547Z,98396.56
2023-12-20T10:10:45.670Z,98401.06
2023-12-20T10:13:42.357Z,98389.71
2023-12-20T10:16:31.465Z,98387.73
2023-12-20T10:19:19.763Z,98380.21
2023-12-20T10:22:07.776Z,98373.80
2023-12-20T10:24:57.670Z,98369.73
2023-12-20T10:27:45.644Z,98361.50
2023-12-20T10:30:33.140Z,98361.05
2023-12-20T10:33:33.714Z,98357.94
2023-12-20T10:36:22.855Z,98350.70
2023-12-20T10:39:12.701Z,98349.33
2023-12-20T10:42:00.872Z,98349.05
2023-12-20T10:44:48.748Z,98344.23
2023-12-20T10:47:38.902Z,98335.11
2023-12-20T10:50:30.333Z,98320.56
2023-12-20T10:53:18.038Z,98314.70
2023-12-20T10:56:09.368Z,98315.25
2023-12-20T10:59:02.611Z,98305.70
2023-12-20T11:01:52.127Z,98300.01
2023-12-20T11:04:46.312Z,98293.58
2023-12-20T11:07:51.960Z,98284.30
2023-12-20T11:11:07.594Z,98275.38
2023-12-20T11:14:03.328Z,98277.17
2023-12-20T11:16:55.401Z,98275.94
2023-12-20T11:19:58.950Z,98272.20
2023-12-20T11:22:57.496Z,98270.22
2023-12-20T11:25:52.805Z,98264.10
2023-12-20T11:28:41.074Z,98255.21
2023-12-20T11:31:29.065Z,98249.55
2023-12-20T11:34:18.939Z,98245.39
2023-12-20T11:37:08.590Z,98240.52
2023-12-20T11:39:58.100Z,98227.85
2023-12-20T11:42:51.002Z,98216.63
2023-12-20T11:45:50.735Z,98210.16
2023-12-20T11:48:45.456Z,98208.70
2023-12-20T11:51:33.450Z,98198.65
2023-12-20T11:54:21.342Z,98201.78
2023-12-20T11:57:08.980Z,98189.70
2023-12-20T11:59:57.292Z,98187.32
2023-12-20T12:02:46.811Z,98177.60
2023-12-20T12:05:37.411Z,98175.69
2023-12-20T12:08:25.641Z,98170.88
2023-12-20T12:11:13.338Z,98164.80
2023-12-20T12:14:02.192Z,98153.43
2023-12-20T12:16:51.678Z,98151.85
2023-12-20T12:19:41.114Z,98148.94
2023-12-20T12:22:29.192Z,98154.29
2023-12-20T12:25:17.204Z,98151.50
2023-12-20T12:28:05.459Z,98149.70
2023-12-20T12:31:00.612Z,98151.08
2023-12-20T12:33:48.954Z,98147.58
2023-12-20T12:36:37.185Z,98143.92
2023-12-20T12:39:28.410Z,98142.11
2023-12-20T12:42:16.135Z,98139.86
2023-12-20T12:45:04.675Z,98130.24
2023-12-20T12:47:52.466Z,98132.47
2023-12-20T12:50:39.966Z,98128.48
2023-12-20T12:53:30.482Z,98125.07
2023-12-20T12:56:18.273Z,98122.51
2023-12-20T12:59:06.939Z,98109.80
2023-12-20T13:01:55.028Z,98114.89
2023-12-20T13:04:44.325Z,98110.65
2023-12-20T13:07:32.510Z,98105.12
2023-12-20T13:10:20.354Z,98107.60
2023-12-20T13:13:08.826Z,98106.44
2023-12-20T13:15:56.609Z,98103.77
2023-12-20T13:18:44.710Z,98102.79
2023-12-20T13:21:32.734Z,98100.97
2023-12-20T13:24:20.612Z,98093.50
2023-12-20T13:27:08.361Z,98093.04
2023-12-20T13:29:55.783Z,98088.65
2023-12-20T13:32:43.831Z,98082.70
2023-12-20T13:35:32.220Z,98083.79
2023-12-20T13:38:20.675Z,98080.70
2023-12-20T13:41:08.388Z,98073.86
2023-12-20T13:43:56.359Z,98063.50
2023-12-20T13:46:44.560Z,98060.72
2023-12-20T13:49:32.838Z,98053.38
2023-12-20T13:52:20.582Z,98057.41
2023-12-20T13:55:09.596Z,98062.08
2023-12-20T13:57:59.084Z,98051.88
2023-12-20T14:00:47.646Z,98051.07
2023-12-20T14:03:35.658Z,98048.63
2023-12-20T14:06:23.420Z,98042.05
2023-12-20T14:09:15.207Z,98038.65
2023-12-20T14:12:02.865Z,98041.04
2023-12-20T14:14:50.734Z,98039.23
2023-12-20T14:17:40.452Z,98038.68
2023-12-20T14:20:28.145Z,98040.32
2023-12-20T14:23:15.962Z,98030.65
2023-12-20T14:26:04.780Z,98018.16
2023-12-20T14:28:52.320Z,98018.14
2023-12-20T14:31:41.438Z,98014.44
2023-12-20T14:34:29.431Z,98016.54
2023-12-20T14:37:18.325Z,98011.58
2023-12-20T14:40:17.662Z,98010.52
2023-12-20T14:43:05.571Z,98006.23
2023-12-20T14:45:54.536Z,98009.40
2023-12-20T14:48:42.832Z,98008.63
2023-12-20T14:51:30.707Z,98005.05
2023-12-20T14:54:18.181Z,98001.61
2023-12-20T14:57:06.484Z,98001.79
2023-12-20T14:59:54.126Z,97996.56
2023-12-20T15:02:42.461Z,97990.62
2023-12-20T15:05:30.583Z,97985.73
2023-12-20T15:08:18.474Z,97985.66
2023-12-20T15:11:06.466Z,97980.98
2023-12-20T15:13:57.420Z,97980.93
2023-12-20T15:16:45.244Z,97980.23
2023-12-20T15:19:33.756Z,97979.21
2023-12-20T15:22:21.690Z,97970.36
2023-12-20T15:25:10.065Z,97963.67
2023-12-20T15:27:58.228Z,97954.07
2023-12-20T15:30:46.129Z,97945.44
2023-12-20T15:33:34.122Z,97941.91
2023-12-20T15:36:22.014Z,97946.30
2023-12-20T15:39:09.947Z,97939.77
2023-12-20T15:41:58.135Z,97937.55
2023-12-20T15:44:45.822Z,97936.16
2023-12-20T15:47:37.260Z,97942.58
2023-12-20T15:50:25.869Z,97938.33
2023-12-20T15:53:13.889Z,97934.89
2023-12-20T15:56:02.622Z,97936.93
2023-12-20T15:58:52.779Z,97915.71
2023-12-20T16:01:40.879Z,97916.65
2023-12-20T16:04:32.201Z,97919.58
2023-12-20T16:07:20.792Z,97929.40
2023-12-20T16:10:08.912Z,97927.86
2023-12-20T16:12:56.999Z,97922.61
2023-12-20T16:15:44.973Z,97920.73
2023-12-20T16:18:34.036Z,97912.94
2023-12-20T16:21:21.860Z,97909.98
2023-12-20T16:24:09.888Z,97908.79
2023-12-20T16:26:57.560Z,97907.81
2023-12-20T16:29:45.342Z,97903.00
2023-12-20T16:32:33.928Z,97904.08
2023-12-20T16:35:21.749Z,97902.26
2023-12-20T16:38:09.346Z,97906.16
2023-12-20T16:40:57.157Z,97902.02
2023-12-20T16:43:44.853Z,97899.22
2023-12-20T16:46:33.144Z,97900.52
2023-12-20T16:49:22.576Z,97897.28
2023-12-20T16:52:10.471Z,97893.30
2023-12-20T16:54:59.297Z,97894.45
2023-12-20T16:57:47.447Z,97891.75
2023-12-20T17:00:35.558Z,97892.23
2023-12-20T17:03:25.916Z,97890.48
2023-12-20T17:06:13.781Z,97893.73
2023-12-20T17:09:01.807Z,97888.48
2023-12-20T17:11:49.351Z,97893.57
2023-12-20T17:14:37.480Z,97891.55
2023-12-20T17:17:25.465Z,97888.14
2023-12-20T17:20:13.390Z,97887.19
2023-12-20T17:23:01.165Z,97887.96
2023-12-20T17:25:48.836Z,97888.84
2023-12-20T17:28:36.645Z,97887.11
2023-12-20T17:31:24.965Z,97887.38
2023-12-20T17:34:14.025Z,97884.19
2023-12-20T17:37:02.026Z,97881.01
2023-12-20T17:39:50.000Z,97882.02
2023-12-20T17:42:37.839Z,97888.67
2023-12-20T17:45:26.201Z,97888.58
2023-12-20T17:48:14.413Z,97890.04
2023-12-20T17:51:02.815Z,97896.95
2023-12-20T17:53:51.263Z,97891.90
2023-12-20T17:56:38.794Z,97897.16
2023-12-20T17:59:26.653Z,97898.50
2023-12-20T18:02:14.228Z,97899.08
2023-12-20T18:05:02.208Z,97902.67
2023-12-20T18:07:53.153Z,97907.10
2023-12-20T18:10:40.805Z,97916.47
2023-12-20T18:13:31.481Z,97912.37
2023-12-20T18:16:19.602Z,97912.27
2023-12-20T18:19:07.921Z,97919.38
2023-12-20T18:21:56.342Z,97929.33
2023-12-20T18:24:44.311Z,97950.56
2023-12-20T18:27:32.397Z,97938.30
2023-12-20T18:30:20.428Z,97927.02
2023-12-20T18:33:08.149Z,97934.96
2023-12-20T18:35:56.313Z,97936.27
2023-12-20T18:38:46.683Z,97939.74
2023-12-20T18:41:34.533Z,97938.27
2023-12-20T18:44:22.205Z,97934.91
2023-12-20T18:47:10.255Z,97930.95
2023-12-20T18:49:58.327Z,97939.86
2023-12-20T18:52:47.232Z,97940.23
2023-12-20T18:55:35.118Z,97941.38
2023-12-20T18:58:25.015Z,97949.94
2023-12-20T19:01:12.969Z,97958.05
2023-12-20T19:04:01.289Z,97955.59
2023-12-20T19:06:50.633Z,97962.50
2023-12-20T19:09:38.486Z,97968.52
2023-12-20T19:12:26.207Z,97972.60
2023-12-20T19:15:14.227Z,97973.77
2023-12-20T19:18:01.979Z,97987.80
2023-12-20T19:20:50.525Z,97998.90
2023-12-20T19:23:38.424Z,98003.52
2023-12-20T19:26:25.925Z,98002.13
2023-12-20T19:29:13.801Z,98008.88
2023-12-20T19:32:01.330Z,98000.54
2023-12-20T19:34:49.114Z,97993.17
2023-12-20T19:37:36.931Z,97984.16
2023-12-20T19:40:24.705Z,97981.87
2023-12-20T19:43:12.574Z,97987.09
2023-12-20T19:46:00.586Z,97986.04
2023-12-20T19:48:48.390Z,97993.45
2023-12-20T19:51:37.164Z,97980.21
2023-12-20T19:54:25.806Z,97983.70
2023-12-20T19:57:15.698Z,97989.38
2023-12-20T20:00:06.076Z,97983.71
2023-12-20T20:02:59.881Z,97993.34
2023-12-20T20:05:47.921Z,98000.88
2023-12-20T20:08:36.247Z,98004.18
2023-12-20T20:11:33.026Z,98007.08
2023-12-20T20:14:28.267Z,98009.92
2023-12-20T20:17:17.513Z,98011.70
2023-12-20T20:20:07.580Z,98012.66
2023-12-20T20:22:55.781Z,98007.92
2023-12-20T20:25:43.891Z,98012.92
2023-12-20T20:28:32.078Z,98009.52
2023-12-20T20:31:20.142Z,98012.45
2023-12-20T20:34:08.239Z,98021.23
2023-12-20T20:36:56.745Z,98028.23
2023-12-20T20:39:46.509Z,98026.66
2023-12-20T20:42:35.817Z,98032.50
2023-12-20T20:45:24.126Z,98028.75
2023-12-20T20:48:21.401Z,98039.38
2023-12-20T20:51:15.389Z,98043.02
2023-12-20T20:54:11.907Z,98029.22
2023-12-20T20:57:06.045Z,98022.04
2023-12-20T20:59:53.806Z,98021.83
2023-12-20T21:02:41.904Z,98020.39
2023-12-20T21:05:30.645Z,98021.17
2023-12-20T21:08:18.417Z,98015.46
2023-12-20T21:11:06.483Z,98011.86
2023-12-20T21:13:54.754Z,98005.48
2023-12-20T21:16:42.777Z,98003.34
2023-12-20T21:19:30.996Z,98003.31
2023-12-20T21:22:18.666Z,98008.85
2023-12-20T21:25:09.965Z,98005.66
2023-12-20T21:27:57.797Z,98000.16
2023-12-20T21:30:46.133Z,97994.92
2023-12-20T21:33:34.386Z,98000.02
2023-12-20T21:36:22.457Z,98010.95
2023-12-20T21:39:11.297Z,98015.92
2023-12-20T21:41:59.450Z,98027.39
2023-12-20T21:44:47.206Z,98037.20
2023-12-20T21:47:35.046Z,98025.88
2023-12-20T21:50:23.364Z,98033.38
2023-12-20T21:53:12.573Z,98032.75
2023-12-20T21:56:00.296Z,98032.66
2023-12-20T21:58:47.806Z,98030.10
2023-12-20T22:01:41.368Z,98027.73
2023-12-20T22:04:29.060Z,98029.34
2023-12-20T22:07:17.447Z,98033.77
2023-12-20T22:10:06.689Z,98035.98
2023-12-20T22:12:54.830Z,98035.98
2023-12-20T22:15:42.870Z,98037.28
2023-12-20T22:18:30.875Z,98051.45
2023-12-20T22:21:18.525Z,98061.18
2023-12-20T22:24:06.810Z,98070.27
2023-12-20T22:26:56.617Z,98079.27
2023-12-20T22:29:44.233Z,98059.45
2023-12-20T22:32:32.113Z,98048.95
2023-12-20T22:35:20.677Z,98045.20
2023-12-20T22:38:08.235Z,98040.89
2023-12-20T22:40:55.985Z,98034.27
2023-12-20T22:43:43.932Z,98027.89
2023-12-20T22:46:31.810Z,98028.75
2023-12-20T22:49:20.460Z,98024.23
2023-12-20T22:52:08.142Z,98015.60
2023-12-20T22:54:56.958Z,98007.96
2023-12-20T22:57:44.982Z,98007.41
2023-12-20T23:00:32.932Z,98013.45
2023-12-20T23:03:26.244Z,98013.33
2023-12-20T23:06:14.132Z,98007.61
2023-12-20T23:09:01.698Z,98008.88
2023-12-20T23:11:51.074Z,98004.46
2023-12-20T23:14:39.314Z,98008.38
2023-12-20T23:17:27.245Z,98006.92
2023-12-20T23:20:15.051Z,98007.48
2023-12-20T23:23:02.992Z,98007.11
2023-12-20T23:25:52.535Z,98005.15
2023-12-20T23:28:41.650Z,98005.17
2023-12-20T23:31:29.786Z,98005.22
2023-12-20T23:34:17.723Z,98003.54
2023-12-20T23:37:06.200Z,98000.29
2023-12-20T23:39:54.184Z,97999.23
2023-12-20T23:42:41.870Z,97989.85
2023-12-20T23:45:30.054Z,97986.13
2023-12-20T23:48:17.943Z,97979.29
2023-12-20T23:51:05.733Z,97979.70
2023-12-20T23:53:53.705Z,97972.28
2023-12-20T23:56:41.306Z,97971.05
2023-12-20T23:59:30.148Z,97973.83
